sensor_id;sensor_type;location;lat;lon;timestamp;P1;durP1;ratioP1;P2;durP2;ratioP2
24151;SDS011;12311;50.866;4.332;2022-12-18T00:01:59;20.45;;;9.20;;
24151;SDS011;12311;50.866;4.332;2022-12-18T00:04:25;14.07;;;7.43;;
24151;SDS011;12311;50.866;4.332;2022-12-18T00:06:52;15.68;;;9.68;;
24151;SDS011;12311;50.866;4.332;2022-12-18T00:09:18;14.40;;;7.03;;
24151;SDS011;12311;50.866;4.332;2022-12-18T00:11:44;23.13;;;7.88;;
24151;SDS011;12311;50.866;4.332;2022-12-18T00:14:11;15.45;;;7.15;;
24151;SDS011;12311;50.866;4.332;2022-12-18T00:16:37;13.77;;;6.50;;
24151;SDS011;12311;50.866;4.332;2022-12-18T00:19:04;13.82;;;6.80;;
24151;SDS011;12311;50.866;4.332;2022-12-18T00:21:30;15.40;;;6.32;;
24151;SDS011;12311;50.866;4.332;2022-12-18T00:23:57;13.77;;;7.47;;
24151;SDS011;12311;50.866;4.332;2022-12-18T00:26:28;13.15;;;7.40;;
24151;SDS011;12311;50.866;4.332;2022-12-18T00:28:57;10.80;;;5.68;;
24151;SDS011;12311;50.866;4.332;2022-12-18T00:31:25;12.90;;;6.38;;
24151;SDS011;12311;50.866;4.332;2022-12-18T00:33:51;13.48;;;5.40;;
24151;SDS011;12311;50.866;4.332;2022-12-18T00:36:20;13.90;;;6.35;;
24151;SDS011;12311;50.866;4.332;2022-12-18T00:38:48;17.73;;;7.25;;
24151;SDS011;12311;50.866;4.332;2022-12-18T00:41:14;12.88;;;7.10;;
24151;SDS011;12311;50.866;4.332;2022-12-18T00:44:02;14.40;;;5.95;;
24151;SDS011;12311;50.866;4.332;2022-12-18T00:46:29;15.23;;;5.70;;
24151;SDS011;12311;50.866;4.332;2022-12-18T00:48:55;9.02;;;5.97;;
24151;SDS011;12311;50.866;4.332;2022-12-18T00:51:21;16.65;;;6.47;;
24151;SDS011;12311;50.866;4.332;2022-12-18T00:53:46;11.57;;;6.57;;
24151;SDS011;12311;50.866;4.332;2022-12-18T00:56:12;17.92;;;5.95;;
24151;SDS011;12311;50.866;4.332;2022-12-18T00:58:38;16.48;;;7.40;;
24151;SDS011;12311;50.866;4.332;2022-12-18T01:01:04;9.52;;;5.10;;
24151;SDS011;12311;50.866;4.332;2022-12-18T01:03:30;9.10;;;6.20;;
24151;SDS011;12311;50.866;4.332;2022-12-18T01:05:56;14.00;;;7.88;;
24151;SDS011;12311;50.866;4.332;2022-12-18T01:08:21;11.43;;;4.18;;
24151;SDS011;12311;50.866;4.332;2022-12-18T01:10:47;14.65;;;6.60;;
24151;SDS011;12311;50.866;4.332;2022-12-18T01:13:13;20.10;;;6.10;;
24151;SDS011;12311;50.866;4.332;2022-12-18T01:15:39;19.50;;;5.00;;
24151;SDS011;12311;50.866;4.332;2022-12-18T01:18:05;11.82;;;6.25;;
24151;SDS011;12311;50.866;4.332;2022-12-18T01:20:31;9.57;;;4.43;;
24151;SDS011;12311;50.866;4.332;2022-12-18T01:22:57;14.57;;;6.28;;
24151;SDS011;12311;50.866;4.332;2022-12-18T01:25:22;8.07;;;5.45;;
24151;SDS011;12311;50.866;4.332;2022-12-18T01:27:48;16.48;;;6.32;;
24151;SDS011;12311;50.866;4.332;2022-12-18T01:30:14;8.73;;;5.28;;
24151;SDS011;12311;50.866;4.332;2022-12-18T01:32:40;13.05;;;6.82;;
24151;SDS011;12311;50.866;4.332;2022-12-18T01:35:06;10.65;;;6.90;;
24151;SDS011;12311;50.866;4.332;2022-12-18T01:37:32;9.70;;;6.82;;
24151;SDS011;12311;50.866;4.332;2022-12-18T01:39:58;16.58;;;5.63;;
24151;SDS011;12311;50.866;4.332;2022-12-18T01:42:23;23.38;;;7.03;;
24151;SDS011;12311;50.866;4.332;2022-12-18T01:44:53;14.30;;;5.07;;
24151;SDS011;12311;50.866;4.332;2022-12-18T01:50:18;13.18;;;6.18;;
24151;SDS011;12311;50.866;4.332;2022-12-18T01:52:48;10.57;;;5.50;;
24151;SDS011;12311;50.866;4.332;2022-12-18T01:55:19;12.27;;;7.53;;
24151;SDS011;12311;50.866;4.332;2022-12-18T01:57:49;9.20;;;5.38;;
24151;SDS011;12311;50.866;4.332;2022-12-18T02:00:19;11.75;;;5.38;;
24151;SDS011;12311;50.866;4.332;2022-12-18T02:02:46;11.05;;;5.70;;
24151;SDS011;12311;50.866;4.332;2022-12-18T02:05:16;8.50;;;4.90;;
24151;SDS011;12311;50.866;4.332;2022-12-18T02:08:08;9.98;;;5.50;;
24151;SDS011;12311;50.866;4.332;2022-12-18T02:10:58;7.50;;;4.43;;
24151;SDS011;12311;50.866;4.332;2022-12-18T02:13:49;14.88;;;4.18;;
24151;SDS011;12311;50.866;4.332;2022-12-18T02:18:51;8.25;;;5.15;;
24151;SDS011;12311;50.866;4.332;2022-12-18T02:24:29;15.90;;;6.40;;
24151;SDS011;12311;50.866;4.332;2022-12-18T02:27:04;7.57;;;3.92;;
24151;SDS011;12311;50.866;4.332;2022-12-18T02:29:36;13.55;;;3.67;;
24151;SDS011;12311;50.866;4.332;2022-12-18T02:32:13;15.55;;;5.50;;
24151;SDS011;12311;50.866;4.332;2022-12-18T02:34:41;6.32;;;3.22;;
24151;SDS011;12311;50.866;4.332;2022-12-18T02:37:10;12.68;;;4.40;;
24151;SDS011;12311;50.866;4.332;2022-12-18T02:39:40;13.30;;;4.68;;
24151;SDS011;12311;50.866;4.332;2022-12-18T02:42:08;6.45;;;4.47;;
24151;SDS011;12311;50.866;4.332;2022-12-18T02:44:35;4.00;;;3.60;;
24151;SDS011;12311;50.866;4.332;2022-12-18T02:47:09;9.05;;;4.65;;
24151;SDS011;12311;50.866;4.332;2022-12-18T02:52:21;6.25;;;3.42;;
24151;SDS011;12311;50.866;4.332;2022-12-18T02:57:50;7.65;;;3.95;;
24151;SDS011;12311;50.866;4.332;2022-12-18T03:00:23;6.43;;;4.80;;
24151;SDS011;12311;50.866;4.332;2022-12-18T03:03:06;9.13;;;4.32;;
24151;SDS011;12311;50.866;4.332;2022-12-18T03:05:48;11.65;;;6.00;;
24151;SDS011;12311;50.866;4.332;2022-12-18T03:08:26;10.40;;;5.70;;
24151;SDS011;12311;50.866;4.332;2022-12-18T03:13:31;11.98;;;5.95;;
24151;SDS011;12311;50.866;4.332;2022-12-18T03:16:02;11.18;;;4.38;;
24151;SDS011;12311;50.866;4.332;2022-12-18T03:19:16;11.68;;;5.05;;
24151;SDS011;12311;50.866;4.332;2022-12-18T03:21:30;5.65;;;3.60;;
24151;SDS011;12311;50.866;4.332;2022-12-18T03:24:00;6.53;;;4.95;;
24151;SDS011;12311;50.866;4.332;2022-12-18T03:26:28;6.07;;;3.65;;
24151;SDS011;12311;50.866;4.332;2022-12-18T03:29:03;12.15;;;4.60;;
24151;SDS011;12311;50.866;4.332;2022-12-18T03:31:33;19.02;;;5.30;;
24151;SDS011;12311;50.866;4.332;2022-12-18T03:33:59;7.40;;;4.85;;
24151;SDS011;12311;50.866;4.332;2022-12-18T03:36:28;22.15;;;4.53;;
24151;SDS011;12311;50.866;4.332;2022-12-18T03:38:54;13.77;;;5.85;;
24151;SDS011;12311;50.866;4.332;2022-12-18T03:41:33;7.28;;;4.47;;
24151;SDS011;12311;50.866;4.332;2022-12-18T03:44:29;7.65;;;4.40;;
24151;SDS011;12311;50.866;4.332;2022-12-18T03:50:11;7.38;;;3.95;;
24151;SDS011;12311;50.866;4.332;2022-12-18T03:55:38;6.28;;;3.80;;
24151;SDS011;12311;50.866;4.332;2022-12-18T03:58:05;9.65;;;4.72;;
24151;SDS011;12311;50.866;4.332;2022-12-18T04:00:32;15.38;;;5.78;;
24151;SDS011;12311;50.866;4.332;2022-12-18T04:02:59;9.90;;;4.05;;
24151;SDS011;12311;50.866;4.332;2022-12-18T04:05:27;9.25;;;3.95;;
24151;SDS011;12311;50.866;4.332;2022-12-18T04:07:54;10.25;;;3.67;;
24151;SDS011;12311;50.866;4.332;2022-12-18T04:10:21;4.38;;;3.97;;
24151;SDS011;12311;50.866;4.332;2022-12-18T04:12:47;6.43;;;4.55;;
24151;SDS011;12311;50.866;4.332;2022-12-18T04:15:13;9.02;;;3.55;;
24151;SDS011;12311;50.866;4.332;2022-12-18T04:17:42;5.95;;;2.83;;
24151;SDS011;12311;50.866;4.332;2022-12-18T04:20:14;7.97;;;4.63;;
24151;SDS011;12311;50.866;4.332;2022-12-18T04:22:40;22.00;;;5.50;;
24151;SDS011;12311;50.866;4.332;2022-12-18T04:25:05;9.70;;;4.13;;
24151;SDS011;12311;50.866;4.332;2022-12-18T04:27:31;10.80;;;4.07;;
24151;SDS011;12311;50.866;4.332;2022-12-18T04:29:57;4.30;;;3.88;;
24151;SDS011;12311;50.866;4.332;2022-12-18T04:32:23;7.00;;;2.83;;
24151;SDS011;12311;50.866;4.332;2022-12-18T04:34:48;8.30;;;3.80;;
24151;SDS011;12311;50.866;4.332;2022-12-18T04:37:14;10.57;;;3.92;;
24151;SDS011;12311;50.866;4.332;2022-12-18T04:39:40;7.05;;;4.53;;
24151;SDS011;12311;50.866;4.332;2022-12-18T04:42:05;6.43;;;3.25;;
24151;SDS011;12311;50.866;4.332;2022-12-18T04:44:31;5.18;;;4.43;;
24151;SDS011;12311;50.866;4.332;2022-12-18T04:46:56;5.20;;;3.88;;
24151;SDS011;12311;50.866;4.332;2022-12-18T04:49:22;8.77;;;3.53;;
24151;SDS011;12311;50.866;4.332;2022-12-18T04:51:48;6.80;;;3.50;;
24151;SDS011;12311;50.866;4.332;2022-12-18T04:54:14;8.02;;;2.60;;
24151;SDS011;12311;50.866;4.332;2022-12-18T04:56:39;24.13;;;4.68;;
24151;SDS011;12311;50.866;4.332;2022-12-18T04:59:05;6.40;;;3.20;;
24151;SDS011;12311;50.866;4.332;2022-12-18T05:01:31;13.98;;;5.05;;
24151;SDS011;12311;50.866;4.332;2022-12-18T05:03:56;9.43;;;3.30;;
24151;SDS011;12311;50.866;4.332;2022-12-18T05:06:22;8.32;;;3.75;;
24151;SDS011;12311;50.866;4.332;2022-12-18T05:08:48;6.05;;;2.47;;
24151;SDS011;12311;50.866;4.332;2022-12-18T05:11:14;4.05;;;2.28;;
24151;SDS011;12311;50.866;4.332;2022-12-18T05:13:41;7.28;;;3.60;;
24151;SDS011;12311;50.866;4.332;2022-12-18T05:16:07;7.45;;;2.60;;
24151;SDS011;12311;50.866;4.332;2022-12-18T05:18:33;5.13;;;3.13;;
24151;SDS011;12311;50.866;4.332;2022-12-18T05:20:59;5.47;;;3.70;;
24151;SDS011;12311;50.866;4.332;2022-12-18T05:23:25;8.50;;;3.00;;
24151;SDS011;12311;50.866;4.332;2022-12-18T05:28:18;5.78;;;3.58;;
24151;SDS011;12311;50.866;4.332;2022-12-18T05:30:51;10.50;;;2.97;;
24151;SDS011;12311;50.866;4.332;2022-12-18T05:33:18;3.72;;;2.58;;
24151;SDS011;12311;50.866;4.332;2022-12-18T05:35:49;8.70;;;4.18;;
24151;SDS011;12311;50.866;4.332;2022-12-18T05:38:17;4.78;;;3.53;;
24151;SDS011;12311;50.866;4.332;2022-12-18T05:40:43;5.18;;;3.40;;
24151;SDS011;12311;50.866;4.332;2022-12-18T05:43:09;4.90;;;3.22;;
24151;SDS011;12311;50.866;4.332;2022-12-18T05:45:38;5.15;;;3.55;;
24151;SDS011;12311;50.866;4.332;2022-12-18T05:48:06;4.28;;;3.58;;
24151;SDS011;12311;50.866;4.332;2022-12-18T05:50:36;4.38;;;2.95;;
24151;SDS011;12311;50.866;4.332;2022-12-18T05:53:03;3.20;;;1.70;;
24151;SDS011;12311;50.866;4.332;2022-12-18T05:55:32;7.80;;;3.47;;
24151;SDS011;12311;50.866;4.332;2022-12-18T05:58:02;5.78;;;2.75;;
24151;SDS011;12311;50.866;4.332;2022-12-18T06:00:28;3.83;;;2.95;;
24151;SDS011;12311;50.866;4.332;2022-12-18T06:02:55;4.88;;;2.92;;
24151;SDS011;12311;50.866;4.332;2022-12-18T06:05:21;6.25;;;4.22;;
24151;SDS011;12311;50.866;4.332;2022-12-18T06:07:46;2.90;;;2.70;;
24151;SDS011;12311;50.866;4.332;2022-12-18T06:10:12;8.52;;;3.03;;
24151;SDS011;12311;50.866;4.332;2022-12-18T06:12:38;9.05;;;3.22;;
24151;SDS011;12311;50.866;4.332;2022-12-18T06:15:04;7.63;;;3.53;;
24151;SDS011;12311;50.866;4.332;2022-12-18T06:17:30;6.07;;;4.60;;
24151;SDS011;12311;50.866;4.332;2022-12-18T06:19:57;5.22;;;2.75;;
24151;SDS011;12311;50.866;4.332;2022-12-18T06:22:23;4.80;;;2.80;;
24151;SDS011;12311;50.866;4.332;2022-12-18T06:24:49;4.18;;;2.85;;
24151;SDS011;12311;50.866;4.332;2022-12-18T06:27:14;6.85;;;3.30;;
24151;SDS011;12311;50.866;4.332;2022-12-18T06:29:40;5.47;;;3.83;;
24151;SDS011;12311;50.866;4.332;2022-12-18T06:32:06;14.35;;;4.00;;
24151;SDS011;12311;50.866;4.332;2022-12-18T06:34:32;3.60;;;3.30;;
24151;SDS011;12311;50.866;4.332;2022-12-18T06:36:58;5.43;;;2.80;;
24151;SDS011;12311;50.866;4.332;2022-12-18T06:39:24;4.30;;;3.05;;
24151;SDS011;12311;50.866;4.332;2022-12-18T06:41:52;4.72;;;3.10;;
24151;SDS011;12311;50.866;4.332;2022-12-18T06:44:18;8.43;;;3.67;;
24151;SDS011;12311;50.866;4.332;2022-12-18T06:46:43;9.70;;;2.83;;
24151;SDS011;12311;50.866;4.332;2022-12-18T06:49:09;1.88;;;1.73;;
24151;SDS011;12311;50.866;4.332;2022-12-18T06:51:35;7.32;;;3.17;;
24151;SDS011;12311;50.866;4.332;2022-12-18T06:54:01;5.07;;;2.67;;
24151;SDS011;12311;50.866;4.332;2022-12-18T06:56:27;4.93;;;3.28;;
24151;SDS011;12311;50.866;4.332;2022-12-18T06:58:53;13.00;;;4.30;;
24151;SDS011;12311;50.866;4.332;2022-12-18T07:01:19;3.75;;;2.70;;
24151;SDS011;12311;50.866;4.332;2022-12-18T07:03:44;6.07;;;2.85;;
24151;SDS011;12311;50.866;4.332;2022-12-18T07:06:19;7.50;;;2.78;;
24151;SDS011;12311;50.866;4.332;2022-12-18T07:08:46;5.15;;;3.90;;
24151;SDS011;12311;50.866;4.332;2022-12-18T07:11:13;11.15;;;2.50;;
24151;SDS011;12311;50.866;4.332;2022-12-18T07:13:40;9.13;;;5.03;;
24151;SDS011;12311;50.866;4.332;2022-12-18T07:16:10;5.65;;;2.67;;
24151;SDS011;12311;50.866;4.332;2022-12-18T07:18:40;5.53;;;3.25;;
24151;SDS011;12311;50.866;4.332;2022-12-18T07:21:06;4.05;;;2.33;;
24151;SDS011;12311;50.866;4.332;2022-12-18T07:23:34;6.05;;;3.20;;
24151;SDS011;12311;50.866;4.332;2022-12-18T07:26:03;7.75;;;3.15;;
24151;SDS011;12311;50.866;4.332;2022-12-18T07:28:31;5.28;;;3.03;;
24151;SDS011;12311;50.866;4.332;2022-12-18T07:30:57;2.70;;;2.05;;
24151;SDS011;12311;50.866;4.332;2022-12-18T07:33:24;6.43;;;3.33;;
24151;SDS011;12311;50.866;4.332;2022-12-18T07:35:50;4.72;;;3.15;;
24151;SDS011;12311;50.866;4.332;2022-12-18T07:38:15;6.55;;;3.88;;
24151;SDS011;12311;50.866;4.332;2022-12-18T07:40:41;5.97;;;4.20;;
24151;SDS011;12311;50.866;4.332;2022-12-18T07:43:06;2.85;;;2.58;;
24151;SDS011;12311;50.866;4.332;2022-12-18T07:45:32;7.47;;;3.28;;
24151;SDS011;12311;50.866;4.332;2022-12-18T07:47:58;5.78;;;3.95;;
24151;SDS011;12311;50.866;4.332;2022-12-18T07:50:23;6.28;;;3.35;;
24151;SDS011;12311;50.866;4.332;2022-12-18T07:52:49;6.47;;;2.90;;
24151;SDS011;12311;50.866;4.332;2022-12-18T07:55:15;9.10;;;2.20;;
24151;SDS011;12311;50.866;4.332;2022-12-18T07:57:40;5.68;;;3.03;;
24151;SDS011;12311;50.866;4.332;2022-12-18T08:00:06;6.03;;;2.97;;
24151;SDS011;12311;50.866;4.332;2022-12-18T08:02:33;4.05;;;2.80;;
24151;SDS011;12311;50.866;4.332;2022-12-18T08:04:58;5.40;;;2.53;;
24151;SDS011;12311;50.866;4.332;2022-12-18T08:07:24;4.53;;;2.85;;
24151;SDS011;12311;50.866;4.332;2022-12-18T08:09:49;3.55;;;3.22;;
24151;SDS011;12311;50.866;4.332;2022-12-18T08:12:15;4.85;;;2.53;;
24151;SDS011;12311;50.866;4.332;2022-12-18T08:14:41;3.67;;;2.10;;
24151;SDS011;12311;50.866;4.332;2022-12-18T08:17:06;3.58;;;2.33;;
24151;SDS011;12311;50.866;4.332;2022-12-18T08:19:32;5.57;;;3.08;;
24151;SDS011;12311;50.866;4.332;2022-12-18T08:21:58;6.40;;;3.45;;
24151;SDS011;12311;50.866;4.332;2022-12-18T08:24:23;5.93;;;2.55;;
24151;SDS011;12311;50.866;4.332;2022-12-18T08:26:49;5.05;;;1.67;;
24151;SDS011;12311;50.866;4.332;2022-12-18T08:29:15;3.58;;;2.63;;
24151;SDS011;12311;50.866;4.332;2022-12-18T08:31:41;4.95;;;2.35;;
24151;SDS011;12311;50.866;4.332;2022-12-18T08:34:07;4.10;;;2.20;;
24151;SDS011;12311;50.866;4.332;2022-12-18T08:36:33;4.38;;;2.03;;
24151;SDS011;12311;50.866;4.332;2022-12-18T08:38:58;2.22;;;1.60;;
24151;SDS011;12311;50.866;4.332;2022-12-18T08:41:24;3.45;;;2.05;;
24151;SDS011;12311;50.866;4.332;2022-12-18T08:43:50;5.18;;;2.42;;
24151;SDS011;12311;50.866;4.332;2022-12-18T08:46:38;5.38;;;2.45;;
24151;SDS011;12311;50.866;4.332;2022-12-18T08:49:06;1.48;;;1.20;;
24151;SDS011;12311;50.866;4.332;2022-12-18T08:51:32;6.68;;;3.45;;
24151;SDS011;12311;50.866;4.332;2022-12-18T08:53:58;7.10;;;3.58;;
24151;SDS011;12311;50.866;4.332;2022-12-18T08:56:24;2.50;;;1.73;;
24151;SDS011;12311;50.866;4.332;2022-12-18T08:58:54;3.38;;;2.28;;
24151;SDS011;12311;50.866;4.332;2022-12-18T09:01:20;5.40;;;2.30;;
24151;SDS011;12311;50.866;4.332;2022-12-18T09:03:46;4.78;;;2.53;;
24151;SDS011;12311;50.866;4.332;2022-12-18T09:06:16;3.80;;;2.67;;
24151;SDS011;12311;50.866;4.332;2022-12-18T09:08:43;3.47;;;2.75;;
24151;SDS011;12311;50.866;4.332;2022-12-18T09:11:14;2.60;;;2.40;;
24151;SDS011;12311;50.866;4.332;2022-12-18T09:13:44;4.78;;;3.05;;
24151;SDS011;12311;50.866;4.332;2022-12-18T09:16:09;7.15;;;2.65;;
24151;SDS011;12311;50.866;4.332;2022-12-18T09:18:35;6.63;;;3.58;;
24151;SDS011;12311;50.866;4.332;2022-12-18T09:21:07;8.02;;;2.78;;
24151;SDS011;12311;50.866;4.332;2022-12-18T09:23:40;3.75;;;2.05;;
24151;SDS011;12311;50.866;4.332;2022-12-18T09:26:07;3.65;;;2.75;;
24151;SDS011;12311;50.866;4.332;2022-12-18T09:28:33;6.25;;;3.08;;
24151;SDS011;12311;50.866;4.332;2022-12-18T09:30:59;13.20;;;3.42;;
24151;SDS011;12311;50.866;4.332;2022-12-18T09:33:30;11.88;;;2.72;;
24151;SDS011;12311;50.866;4.332;2022-12-18T09:35:56;4.93;;;3.33;;
24151;SDS011;12311;50.866;4.332;2022-12-18T09:38:22;13.30;;;3.20;;
24151;SDS011;12311;50.866;4.332;2022-12-18T09:40:49;3.33;;;2.13;;
24151;SDS011;12311;50.866;4.332;2022-12-18T09:43:33;7.28;;;2.38;;
24151;SDS011;12311;50.866;4.332;2022-12-18T09:46:08;4.97;;;3.15;;
24151;SDS011;12311;50.866;4.332;2022-12-18T09:48:41;7.97;;;3.28;;
24151;SDS011;12311;50.866;4.332;2022-12-18T09:51:11;12.68;;;3.92;;
24151;SDS011;12311;50.866;4.332;2022-12-18T09:53:44;6.60;;;3.88;;
24151;SDS011;12311;50.866;4.332;2022-12-18T09:56:20;6.25;;;2.58;;
24151;SDS011;12311;50.866;4.332;2022-12-18T10:01:25;7.13;;;2.88;;
24151;SDS011;12311;50.866;4.332;2022-12-18T10:03:52;4.45;;;2.05;;
24151;SDS011;12311;50.866;4.332;2022-12-18T10:06:53;5.75;;;2.95;;
24151;SDS011;12311;50.866;4.332;2022-12-18T10:12:08;13.77;;;5.00;;
24151;SDS011;12311;50.866;4.332;2022-12-18T10:17:45;5.78;;;3.58;;
24151;SDS011;12311;50.866;4.332;2022-12-18T10:20:28;6.30;;;2.22;;
24151;SDS011;12311;50.866;4.332;2022-12-18T10:23:14;7.53;;;2.90;;
24151;SDS011;12311;50.866;4.332;2022-12-18T10:28:31;7.07;;;3.33;;
24151;SDS011;12311;50.866;4.332;2022-12-18T10:31:00;7.60;;;3.70;;
24151;SDS011;12311;50.866;4.332;2022-12-18T10:33:28;5.30;;;3.13;;
24151;SDS011;12311;50.866;4.332;2022-12-18T10:35:56;5.72;;;3.50;;
24151;SDS011;12311;50.866;4.332;2022-12-18T10:38:24;30.30;;;4.20;;
24151;SDS011;12311;50.866;4.332;2022-12-18T10:40:52;6.97;;;4.05;;
24151;SDS011;12311;50.866;4.332;2022-12-18T10:46:17;20.80;;;3.42;;
24151;SDS011;12311;50.866;4.332;2022-12-18T10:48:50;13.82;;;4.85;;
24151;SDS011;12311;50.866;4.332;2022-12-18T10:51:25;11.38;;;3.85;;
24151;SDS011;12311;50.866;4.332;2022-12-18T10:53:53;12.65;;;4.20;;
24151;SDS011;12311;50.866;4.332;2022-12-18T10:56:26;9.63;;;4.22;;
24151;SDS011;12311;50.866;4.332;2022-12-18T10:58:58;6.15;;;4.07;;
24151;SDS011;12311;50.866;4.332;2022-12-18T11:01:44;11.50;;;6.90;;
24151;SDS011;12311;50.866;4.332;2022-12-18T11:04:25;7.75;;;3.33;;
24151;SDS011;12311;50.866;4.332;2022-12-18T11:06:55;10.85;;;4.75;;
24151;SDS011;12311;50.866;4.332;2022-12-18T11:09:38;7.18;;;4.53;;
24151;SDS011;12311;50.866;4.332;2022-12-18T11:12:23;6.88;;;3.20;;
24151;SDS011;12311;50.866;4.332;2022-12-18T11:14:49;7.18;;;4.15;;
24151;SDS011;12311;50.866;4.332;2022-12-18T11:17:23;4.78;;;2.72;;
24151;SDS011;12311;50.866;4.332;2022-12-18T11:20:07;6.47;;;2.80;;
24151;SDS011;12311;50.866;4.332;2022-12-18T11:22:57;6.60;;;3.08;;
24151;SDS011;12311;50.866;4.332;2022-12-18T11:25:28;5.70;;;3.63;;
24151;SDS011;12311;50.866;4.332;2022-12-18T11:27:59;6.43;;;3.53;;
24151;SDS011;12311;50.866;4.332;2022-12-18T11:30:27;7.95;;;3.35;;
24151;SDS011;12311;50.866;4.332;2022-12-18T11:32:59;15.43;;;6.00;;
24151;SDS011;12311;50.866;4.332;2022-12-18T11:35:35;7.82;;;3.53;;
24151;SDS011;12311;50.866;4.332;2022-12-18T11:38:28;10.40;;;3.28;;
24151;SDS011;12311;50.866;4.332;2022-12-18T11:46:36;5.10;;;3.30;;
24151;SDS011;12311;50.866;4.332;2022-12-18T11:49:12;5.68;;;3.13;;
24151;SDS011;12311;50.866;4.332;2022-12-18T11:54:38;12.85;;;3.60;;
24151;SDS011;12311;50.866;4.332;2022-12-18T11:57:11;8.98;;;3.35;;
24151;SDS011;12311;50.866;4.332;2022-12-18T12:00:22;9.23;;;3.45;;
24151;SDS011;12311;50.866;4.332;2022-12-18T12:03:02;15.05;;;4.32;;
24151;SDS011;12311;50.866;4.332;2022-12-18T12:08:21;10.60;;;3.85;;
24151;SDS011;12311;50.866;4.332;2022-12-18T12:13:41;8.35;;;3.83;;
24151;SDS011;12311;50.866;4.332;2022-12-18T12:16:33;6.68;;;4.03;;
24151;SDS011;12311;50.866;4.332;2022-12-18T12:19:30;14.07;;;4.00;;
24151;SDS011;12311;50.866;4.332;2022-12-18T12:27:39;7.20;;;4.28;;
24151;SDS011;12311;50.866;4.332;2022-12-18T12:30:30;5.85;;;3.47;;
24151;SDS011;12311;50.866;4.332;2022-12-18T12:36:14;3.40;;;2.28;;
24151;SDS011;12311;50.866;4.332;2022-12-18T12:38:44;6.60;;;2.88;;
24151;SDS011;12311;50.866;4.332;2022-12-18T12:41:16;7.63;;;3.95;;
24151;SDS011;12311;50.866;4.332;2022-12-18T12:44:07;8.88;;;3.15;;
24151;SDS011;12311;50.866;4.332;2022-12-18T12:46:40;7.53;;;3.58;;
24151;SDS011;12311;50.866;4.332;2022-12-18T12:49:09;16.15;;;5.68;;
24151;SDS011;12311;50.866;4.332;2022-12-18T12:51:46;19.13;;;6.75;;
24151;SDS011;12311;50.866;4.332;2022-12-18T12:54:37;7.38;;;3.65;;
24151;SDS011;12311;50.866;4.332;2022-12-18T13:00:30;15.63;;;5.50;;
24151;SDS011;12311;50.866;4.332;2022-12-18T13:03:03;8.93;;;4.03;;
24151;SDS011;12311;50.866;4.332;2022-12-18T13:05:54;8.18;;;3.80;;
24151;SDS011;12311;50.866;4.332;2022-12-18T13:08:28;10.52;;;5.47;;
24151;SDS011;12311;50.866;4.332;2022-12-18T13:10:57;11.32;;;5.50;;
24151;SDS011;12311;50.866;4.332;2022-12-18T13:16:22;7.68;;;3.72;;
24151;SDS011;12311;50.866;4.332;2022-12-18T13:18:49;11.38;;;4.78;;
24151;SDS011;12311;50.866;4.332;2022-12-18T13:21:30;9.50;;;3.80;;
24151;SDS011;12311;50.866;4.332;2022-12-18T13:24:13;9.32;;;4.85;;
24151;SDS011;12311;50.866;4.332;2022-12-18T13:26:47;9.73;;;3.97;;
24151;SDS011;12311;50.866;4.332;2022-12-18T13:29:14;15.38;;;5.80;;
24151;SDS011;12311;50.866;4.332;2022-12-18T13:32:19;12.35;;;5.15;;
24151;SDS011;12311;50.866;4.332;2022-12-18T13:35:13;11.18;;;5.05;;
24151;SDS011;12311;50.866;4.332;2022-12-18T13:37:53;8.80;;;4.85;;
24151;SDS011;12311;50.866;4.332;2022-12-18T13:43:15;9.90;;;4.00;;
24151;SDS011;12311;50.866;4.332;2022-12-18T13:45:44;7.65;;;4.88;;
24151;SDS011;12311;50.866;4.332;2022-12-18T13:48:16;13.77;;;5.57;;
24151;SDS011;12311;50.866;4.332;2022-12-18T13:50:48;13.40;;;4.90;;
24151;SDS011;12311;50.866;4.332;2022-12-18T13:53:28;4.97;;;3.53;;
24151;SDS011;12311;50.866;4.332;2022-12-18T13:55:58;9.82;;;5.47;;
24151;SDS011;12311;50.866;4.332;2022-12-18T13:58:24;8.80;;;5.88;;
24151;SDS011;12311;50.866;4.332;2022-12-18T14:00:49;8.07;;;4.97;;
24151;SDS011;12311;50.866;4.332;2022-12-18T14:03:25;14.93;;;4.97;;
24151;SDS011;12311;50.866;4.332;2022-12-18T14:05:53;11.45;;;4.70;;
24151;SDS011;12311;50.866;4.332;2022-12-18T14:08:34;12.93;;;4.75;;
24151;SDS011;12311;50.866;4.332;2022-12-18T14:11:04;16.15;;;4.57;;
24151;SDS011;12311;50.866;4.332;2022-12-18T14:13:32;13.13;;;4.80;;
24151;SDS011;12311;50.866;4.332;2022-12-18T14:16:04;15.20;;;4.72;;
24151;SDS011;12311;50.866;4.332;2022-12-18T14:18:42;10.75;;;5.57;;
24151;SDS011;12311;50.866;4.332;2022-12-18T14:21:24;11.68;;;5.35;;
24151;SDS011;12311;50.866;4.332;2022-12-18T14:24:04;6.57;;;4.35;;
24151;SDS011;12311;50.866;4.332;2022-12-18T14:26:33;12.80;;;7.45;;
24151;SDS011;12311;50.866;4.332;2022-12-18T14:29:22;8.05;;;3.83;;
24151;SDS011;12311;50.866;4.332;2022-12-18T14:32:04;13.40;;;5.10;;
24151;SDS011;12311;50.866;4.332;2022-12-18T14:34:32;5.78;;;3.95;;
24151;SDS011;12311;50.866;4.332;2022-12-18T14:36:58;11.82;;;4.22;;
24151;SDS011;12311;50.866;4.332;2022-12-18T14:39:24;12.13;;;6.10;;
24151;SDS011;12311;50.866;4.332;2022-12-18T14:41:50;26.13;;;5.93;;
24151;SDS011;12311;50.866;4.332;2022-12-18T14:44:17;15.43;;;5.95;;
24151;SDS011;12311;50.866;4.332;2022-12-18T14:46:43;12.38;;;3.70;;
24151;SDS011;12311;50.866;4.332;2022-12-18T14:49:30;14.57;;;5.38;;
24151;SDS011;12311;50.866;4.332;2022-12-18T14:51:58;17.63;;;5.28;;
24151;SDS011;12311;50.866;4.332;2022-12-18T14:54:25;16.55;;;5.82;;
24151;SDS011;12311;50.866;4.332;2022-12-18T14:56:57;21.20;;;6.18;;
24151;SDS011;12311;50.866;4.332;2022-12-18T14:59:26;12.75;;;5.25;;
24151;SDS011;12311;50.866;4.332;2022-12-18T15:04:29;14.00;;;5.18;;
24151;SDS011;12311;50.866;4.332;2022-12-18T15:10:31;9.35;;;4.18;;
24151;SDS011;12311;50.866;4.332;2022-12-18T15:20:41;12.10;;;4.78;;
24151;SDS011;12311;50.866;4.332;2022-12-18T15:23:17;15.88;;;6.28;;
24151;SDS011;12311;50.866;4.332;2022-12-18T15:25:49;11.90;;;5.05;;
24151;SDS011;12311;50.866;4.332;2022-12-18T15:28:35;10.32;;;4.88;;
24151;SDS011;12311;50.866;4.332;2022-12-18T15:38:47;17.90;;;5.20;;
24151;SDS011;12311;50.866;4.332;2022-12-18T15:41:18;14.00;;;5.45;;
24151;SDS011;12311;50.866;4.332;2022-12-18T15:43:46;13.70;;;6.00;;
24151;SDS011;12311;50.866;4.332;2022-12-18T15:46:17;13.23;;;7.07;;
24151;SDS011;12311;50.866;4.332;2022-12-18T15:48:45;11.55;;;4.05;;
24151;SDS011;12311;50.866;4.332;2022-12-18T15:51:19;15.95;;;5.70;;
24151;SDS011;12311;50.866;4.332;2022-12-18T15:53:48;9.02;;;4.88;;
24151;SDS011;12311;50.866;4.332;2022-12-18T15:56:17;11.50;;;4.72;;
24151;SDS011;12311;50.866;4.332;2022-12-18T15:59:02;14.23;;;5.22;;
24151;SDS011;12311;50.866;4.332;2022-12-18T16:01:30;10.73;;;5.75;;
24151;SDS011;12311;50.866;4.332;2022-12-18T16:03:58;15.23;;;6.50;;
24151;SDS011;12311;50.866;4.332;2022-12-18T16:06:24;10.38;;;5.15;;
24151;SDS011;12311;50.866;4.332;2022-12-18T16:08:49;9.95;;;4.30;;
24151;SDS011;12311;50.866;4.332;2022-12-18T16:11:23;12.10;;;4.90;;
24151;SDS011;12311;50.866;4.332;2022-12-18T16:14:07;5.78;;;3.60;;
24151;SDS011;12311;50.866;4.332;2022-12-18T16:16:43;13.15;;;4.95;;
24151;SDS011;12311;50.866;4.332;2022-12-18T16:19:10;12.15;;;4.40;;
24151;SDS011;12311;50.866;4.332;2022-12-18T16:21:36;10.23;;;5.10;;
24151;SDS011;12311;50.866;4.332;2022-12-18T16:24:01;13.98;;;5.90;;
24151;SDS011;12311;50.866;4.332;2022-12-18T16:26:27;14.60;;;6.13;;
24151;SDS011;12311;50.866;4.332;2022-12-18T16:28:53;13.45;;;5.50;;
24151;SDS011;12311;50.866;4.332;2022-12-18T16:31:19;25.42;;;9.40;;
24151;SDS011;12311;50.866;4.332;2022-12-18T16:33:45;8.25;;;4.72;;
24151;SDS011;12311;50.866;4.332;2022-12-18T16:36:11;13.88;;;5.50;;